sensor_id;sensor_type;location;lat;lon;timestamp;P1;durP1;ratioP1;P2;durP2;ratioP2
75914;SDS011;64593;51.050;13.780;2022-11-27T07:05:15;23.55;;;5.90;;
75914;SDS011;64593;51.050;13.780;2022-11-27T07:10:35;20.25;;;7.72;;
75914;SDS011;64593;51.050;13.780;2022-11-27T07:15:37;22.85;;;8.20;;
75914;SDS011;64593;51.050;13.780;2022-11-27T07:20:39;18.90;;;7.30;;
75914;SDS011;64593;51.050;13.780;2022-11-27T07:25:41;19.65;;;8.77;;
75914;SDS011;64593;51.050;13.780;2022-11-27T07:30:43;27.05;;;10.27;;
75914;SDS011;64593;51.050;13.780;2022-11-27T07:35:44;16.35;;;8.30;;
75914;SDS011;64593;51.050;13.780;2022-11-27T07:40:46;22.40;;;7.65;;
75914;SDS011;64593;51.050;13.780;2022-11-27T07:45:47;13.05;;;6.28;;
75914;SDS011;64593;51.050;13.780;2022-11-27T07:50:49;18.20;;;7.40;;
75914;SDS011;64593;51.050;13.780;2022-11-27T07:55:51;25.35;;;6.47;;
75914;SDS011;64593;51.050;13.780;2022-11-27T08:00:52;19.23;;;7.97;;
75914;SDS011;64593;51.050;13.780;2022-11-27T08:05:54;17.02;;;7.13;;
75914;SDS011;64593;51.050;13.780;2022-11-27T08:10:56;23.55;;;7.55;;
75914;SDS011;64593;51.050;13.780;2022-11-27T08:15:58;22.73;;;8.90;;
75914;SDS011;64593;51.050;13.780;2022-11-27T08:21:00;29.33;;;8.90;;
75914;SDS011;64593;51.050;13.780;2022-11-27T08:26:06;56.10;;;8.95;;
75914;SDS011;64593;51.050;13.780;2022-11-27T08:31:10;22.55;;;8.23;;
75914;SDS011;64593;51.050;13.780;2022-11-27T08:36:31;36.38;;;11.15;;
75914;SDS011;64593;51.050;13.780;2022-11-27T08:41:33;15.07;;;6.55;;
75914;SDS011;64593;51.050;13.780;2022-11-27T08:46:35;29.08;;;12.32;;
75914;SDS011;64593;51.050;13.780;2022-11-27T08:51:37;13.82;;;6.93;;
75914;SDS011;64593;51.050;13.780;2022-11-27T08:56:38;15.02;;;7.10;;
75914;SDS011;64593;51.050;13.780;2022-11-27T09:01:40;18.80;;;5.65;;
75914;SDS011;64593;51.050;13.780;2022-11-27T09:06:42;18.58;;;5.68;;
75914;SDS011;64593;51.050;13.780;2022-11-27T09:11:43;21.25;;;8.10;;
75914;SDS011;64593;51.050;13.780;2022-11-27T09:16:45;27.25;;;11.52;;
75914;SDS011;64593;51.050;13.780;2022-11-27T09:21:49;37.40;;;12.73;;
75914;SDS011;64593;51.050;13.780;2022-11-27T09:26:51;17.45;;;7.85;;
75914;SDS011;64593;51.050;13.780;2022-11-27T09:31:52;17.13;;;7.93;;
75914;SDS011;64593;51.050;13.780;2022-11-27T09:36:54;22.83;;;9.60;;
75914;SDS011;64593;51.050;13.780;2022-11-27T09:41:56;27.83;;;12.93;;
75914;SDS011;64593;51.050;13.780;2022-11-27T09:47:09;17.60;;;7.82;;
75914;SDS011;64593;51.050;13.780;2022-11-27T09:52:27;28.92;;;12.60;;
75914;SDS011;64593;51.050;13.780;2022-11-27T09:57:38;19.55;;;8.63;;
75914;SDS011;64593;51.050;13.780;2022-11-27T10:03:00;21.15;;;10.63;;
75914;SDS011;64593;51.050;13.780;2022-11-27T10:18:49;20.10;;;10.95;;
75914;SDS011;64593;51.050;13.780;2022-11-27T10:24:05;20.92;;;10.13;;
75914;SDS011;64593;51.050;13.780;2022-11-27T10:29:29;16.58;;;7.30;;
75914;SDS011;64593;51.050;13.780;2022-11-27T10:34:37;13.68;;;6.57;;
75914;SDS011;64593;51.050;13.780;2022-11-27T10:39:45;9.02;;;4.07;;
75914;SDS011;64593;51.050;13.780;2022-11-27T10:44:58;12.55;;;4.20;;
75914;SDS011;64593;51.050;13.780;2022-11-27T10:50:08;9.93;;;2.75;;
75914;SDS011;64593;51.050;13.780;2022-11-27T10:55:16;11.02;;;3.55;;
75914;SDS011;64593;51.050;13.780;2022-11-27T11:00:26;7.57;;;1.95;;
75914;SDS011;64593;51.050;13.780;2022-11-27T11:05:28;7.35;;;3.38;;
75914;SDS011;64593;51.050;13.780;2022-11-27T11:10:58;2.45;;;1.08;;
75914;SDS011;64593;51.050;13.780;2022-11-27T11:16:14;7.32;;;2.65;;
75914;SDS011;64593;51.050;13.780;2022-11-27T11:21:28;9.25;;;3.92;;
75914;SDS011;64593;51.050;13.780;2022-11-27T11:26:33;8.50;;;3.03;;
75914;SDS011;64593;51.050;13.780;2022-11-27T11:31:37;7.18;;;2.80;;
75914;SDS011;64593;51.050;13.780;2022-11-27T11:36:40;4.13;;;2.22;;
75914;SDS011;64593;51.050;13.780;2022-11-27T11:41:57;4.07;;;1.58;;
75914;SDS011;64593;51.050;13.780;2022-11-27T11:46:58;5.28;;;2.45;;
75914;SDS011;64593;51.050;13.780;2022-11-27T12:47:24;2.75;;;1.20;;
